Terminal Aerodrome Forecast
Issued by NWS Mobile, AL

Home | Current Version | Previous Version | Text Only | Print | Product List | Glossary On
Versions: 1 2 3 4 5 6 7 8 9 10 11 12 13 14 15 16 17 18 19 20 21 22 23 24 25 26 27 28 29 30 31 32 33
000
FTUS44 KMOB 252225 AAB
TAFMOB
TAF AMD
KMOB 252225Z 2522/2618 24006KT P6SM VCSH FEW015 BKN035 OVC060
     FM260300 20008KT P6SM BKN010
     FM261200 25003KT 2SM BR OVC005
     FM261500 27005KT P6SM SCT250=

USA.gov is the U.S. government's official web portal to all federal, state and local government web resources and services.